Garrett Bridge, Arkansas
Current Conditions -  °F | °C
As of 7:53 PM on Thursday 20 Nov 2014 (Local Time) from KLLQ Reporting Station
Overcast Overcast  
Wind Chill: 52°   Ceiling: 5500
Heat Index: 52°   Visibility: 10mi
Dew Point: 48°   Wind: 3mph
Humidity: 86%   Direction: 90°E
Pressure: 30.17"   Gusts: NA
Location:  33.9283°N, 91.468°W
Report Text: KLLQ 210153Z AUTO 09003KT 10SM OVC055 11/09 A3017 RMK AO2 SLP215 T01110089
Loading
Personal Weather Stations






























Interactive Weather Map New forecast layout! Learn more

10-Day Weather Forecast

Advertisements
Track Severe Weather on mobile